createdAt,value
2023-05-15T00:00:54.895Z,15.40
2023-05-15T00:03:23.202Z,15.30
2023-05-15T00:05:52.405Z,15.30
2023-05-15T00:08:20.662Z,15.30
2023-05-15T00:11:00.642Z,15.40
2023-05-15T00:13:30.905Z,15.30
2023-05-15T00:15:59.090Z,15.30
2023-05-15T00:18:27.460Z,15.20
2023-05-15T00:20:55.678Z,15.20
2023-05-15T00:23:23.803Z,15.20
2023-05-15T00:25:51.944Z,15.10
2023-05-15T00:28:20.101Z,15.00
2023-05-15T00:30:49.630Z,15.00
2023-05-15T00:33:17.707Z,15.00
2023-05-15T00:35:46.040Z,15.00
2023-05-15T00:38:14.258Z,15.00
2023-05-15T00:40:43.598Z,14.90
2023-05-15T00:43:13.193Z,14.80
2023-05-15T00:45:43.376Z,14.90
2023-05-15T00:48:13.843Z,14.80
2023-05-15T00:50:43.424Z,14.80
2023-05-15T00:53:11.983Z,14.80
2023-05-15T00:55:41.649Z,14.80
2023-05-15T00:58:11.926Z,14.70
2023-05-15T01:00:40.522Z,14.70
2023-05-15T01:03:09.503Z,14.70
2023-05-15T01:05:39.274Z,14.70
2023-05-15T01:08:21.501Z,14.70
2023-05-15T01:10:50.857Z,14.60
2023-05-15T01:13:21.624Z,14.60
2023-05-15T01:15:50.513Z,14.60
2023-05-15T01:18:18.911Z,14.70
2023-05-15T01:21:12.120Z,14.70
2023-05-15T01:23:52.207Z,14.70
2023-05-15T01:26:52.929Z,14.70
2023-05-15T01:29:27.153Z,14.60
2023-05-15T01:31:59.997Z,14.60
2023-05-15T01:34:34.853Z,14.60
2023-05-15T01:37:05.236Z,14.60
2023-05-15T01:39:36.745Z,14.60
2023-05-15T01:42:09.210Z,14.60
2023-05-15T01:44:44.295Z,14.70
2023-05-15T01:47:16.140Z,14.80
2023-05-15T01:49:46.055Z,14.80
2023-05-15T01:52:19.732Z,14.70
2023-05-15T01:54:48.993Z,14.80
2023-05-15T01:57:18.855Z,14.80
2023-05-15T01:59:48.776Z,14.90
2023-05-15T02:02:17.384Z,14.80
2023-05-15T02:04:46.415Z,14.80
2023-05-15T02:07:15.852Z,14.80
2023-05-15T02:09:46.326Z,14.80
2023-05-15T02:12:15.666Z,14.80
2023-05-15T02:14:45.084Z,14.80
2023-05-15T02:17:15.241Z,14.80
2023-05-15T02:19:43.799Z,14.80
2023-05-15T02:22:12.538Z,14.90
2023-05-15T02:24:41.663Z,14.90
2023-05-15T02:27:15.616Z,14.90
2023-05-15T02:30:04.965Z,14.80
2023-05-15T02:32:44.670Z,14.90
2023-05-15T02:35:23.371Z,14.90
2023-05-15T02:37:56.099Z,14.90
2023-05-15T02:40:28.563Z,14.90
2023-05-15T02:42:57.963Z,14.90
2023-05-15T02:45:27.498Z,14.80
2023-05-15T02:47:57.498Z,14.80
2023-05-15T02:50:27.157Z,14.80
2023-05-15T02:53:03.509Z,14.80
2023-05-15T02:55:31.782Z,14.80
2023-05-15T02:58:00.398Z,14.80
2023-05-15T03:00:29.112Z,14.70
2023-05-15T03:03:00.566Z,14.70
2023-05-15T03:05:31.141Z,14.60
2023-05-15T03:07:59.404Z,14.60
2023-05-15T03:10:27.638Z,14.50
2023-05-15T03:12:59.003Z,14.50
2023-05-15T03:15:27.738Z,14.50
2023-05-15T03:17:56.141Z,14.50
2023-05-15T03:20:26.411Z,14.40
2023-05-15T03:22:54.668Z,14.30
2023-05-15T03:25:23.601Z,14.30
2023-05-15T03:27:52.028Z,14.30
2023-05-15T03:30:20.332Z,14.30
2023-05-15T03:32:48.573Z,14.30
2023-05-15T03:35:16.852Z,14.30
2023-05-15T03:37:46.563Z,14.30
2023-05-15T03:40:15.512Z,14.20
2023-05-15T03:42:43.604Z,14.20
2023-05-15T03:45:11.782Z,14.30
2023-05-15T03:47:41.089Z,14.30
2023-05-15T03:50:09.823Z,14.30
2023-05-15T03:52:39.578Z,14.30
2023-05-15T03:55:10.627Z,14.30
2023-05-15T03:57:38.805Z,14.20
2023-05-15T04:00:10.969Z,14.20
2023-05-15T04:02:42.427Z,14.10
2023-05-15T04:05:11.276Z,14.10
2023-05-15T04:07:39.924Z,14.10
2023-05-15T04:10:10.363Z,14.00
2023-05-15T04:12:38.480Z,14.00
2023-05-15T04:15:16.967Z,14.10
2023-05-15T04:17:45.669Z,14.20
2023-05-15T04:20:15.210Z,14.20
2023-05-15T04:22:43.859Z,14.10
2023-05-15T04:25:14.644Z,14.10
2023-05-15T04:27:43.766Z,14.10
2023-05-15T04:30:13.291Z,14.10
2023-05-15T04:32:42.344Z,14.00
2023-05-15T04:35:12.484Z,14.10
2023-05-15T04:37:41.682Z,14.00
2023-05-15T04:40:10.868Z,14.10
2023-05-15T04:42:40.328Z,14.10
2023-05-15T04:45:10.291Z,14.10
2023-05-15T04:47:38.584Z,14.20
2023-05-15T04:50:07.723Z,14.20
2023-05-15T04:52:36.098Z,14.20
2023-05-15T04:55:04.405Z,14.20
2023-05-15T04:57:32.517Z,14.20
2023-05-15T05:00:02.069Z,14.20
2023-05-15T05:02:30.634Z,14.20
2023-05-15T05:04:58.839Z,14.20
2023-05-15T05:07:26.935Z,14.20
2023-05-15T05:09:55.082Z,14.30
2023-05-15T05:12:23.135Z,14.30
2023-05-15T05:14:51.227Z,14.30
2023-05-15T05:17:20.774Z,14.30
2023-05-15T05:19:48.898Z,14.30
2023-05-15T05:22:17.022Z,14.30
2023-05-15T05:24:45.225Z,14.30
2023-05-15T05:27:13.361Z,14.40
2023-05-15T05:29:41.521Z,14.40
2023-05-15T05:32:09.688Z,14.40
2023-05-15T05:34:39.769Z,14.50
2023-05-15T05:37:07.915Z,14.50
2023-05-15T05:39:36.278Z,14.50
2023-05-15T05:42:04.547Z,14.50
2023-05-15T05:44:34.264Z,14.50
2023-05-15T05:47:02.404Z,14.50
2023-05-15T05:49:30.557Z,14.50
2023-05-15T05:52:06.879Z,14.60
2023-05-15T05:54:35.105Z,14.60
2023-05-15T05:57:03.263Z,14.60
2023-05-15T05:59:31.597Z,14.70
2023-05-15T06:01:59.823Z,14.70
2023-05-15T06:04:28.133Z,14.60
2023-05-15T06:06:56.642Z,14.70
2023-05-15T06:09:26.337Z,14.70
2023-05-15T06:11:54.500Z,14.80
2023-05-15T06:14:23.249Z,14.80
2023-05-15T06:16:51.658Z,14.80
2023-05-15T06:19:19.933Z,14.80
2023-05-15T06:21:48.224Z,14.80
2023-05-15T06:24:16.352Z,14.80
2023-05-15T06:26:45.924Z,14.90
2023-05-15T06:29:14.116Z,14.90
2023-05-15T06:31:42.300Z,15.00
2023-05-15T06:34:10.473Z,15.00
2023-05-15T06:36:38.701Z,15.00
2023-05-15T06:39:06.863Z,15.10
2023-05-15T06:41:34.949Z,15.00
2023-05-15T06:44:07.449Z,15.10
2023-05-15T06:46:35.691Z,15.10
2023-05-15T06:49:03.941Z,15.10
2023-05-15T06:51:32.149Z,15.10
2023-05-15T06:54:00.286Z,15.10
2023-05-15T06:56:28.334Z,15.20
2023-05-15T06:58:56.618Z,15.10
2023-05-15T07:01:26.214Z,15.20
2023-05-15T07:03:54.425Z,15.20
2023-05-15T07:06:23.085Z,15.30
2023-05-15T07:08:51.173Z,15.30
2023-05-15T07:11:19.295Z,15.30
2023-05-15T07:13:47.386Z,15.40
2023-05-15T07:16:15.692Z,15.40
2023-05-15T07:18:45.230Z,15.40
2023-05-15T07:21:13.666Z,15.40
2023-05-15T07:23:41.712Z,15.50
2023-05-15T07:26:14.078Z,15.50
2023-05-15T07:28:45.246Z,15.60
2023-05-15T07:31:13.419Z,15.60
2023-05-15T07:33:41.515Z,15.60
2023-05-15T07:36:11.386Z,15.70
2023-05-15T07:38:39.488Z,15.70
2023-05-15T07:41:07.544Z,15.70
2023-05-15T07:43:35.727Z,15.70
2023-05-15T07:46:03.834Z,15.80
2023-05-15T07:48:31.978Z,15.80
2023-05-15T07:51:00.193Z,15.70
2023-05-15T07:53:29.716Z,15.70
2023-05-15T07:55:57.845Z,15.80
2023-05-15T07:58:26.099Z,15.80
2023-05-15T08:00:54.215Z,15.80
2023-05-15T08:03:22.539Z,15.80
2023-05-15T08:05:51.824Z,15.90
2023-05-15T08:08:19.976Z,15.90
2023-05-15T08:10:49.443Z,15.90
2023-05-15T08:13:17.640Z,15.90
2023-05-15T08:15:45.862Z,16.00
2023-05-15T08:18:13.987Z,16.00
2023-05-15T08:20:42.057Z,15.90
2023-05-15T08:23:10.645Z,16.00
2023-05-15T08:25:38.975Z,16.00
2023-05-15T08:28:08.407Z,16.00
2023-05-15T08:30:36.538Z,16.00
2023-05-15T08:33:04.788Z,16.00
2023-05-15T08:35:33.121Z,16.00
2023-05-15T08:38:01.308Z,16.00
2023-05-15T08:43:04.464Z,16.10
2023-05-15T08:45:35.179Z,16.10
2023-05-15T08:48:08.011Z,16.10
2023-05-15T08:50:39.532Z,16.10
2023-05-15T08:53:08.982Z,16.20
2023-05-15T08:55:37.408Z,16.20
2023-05-15T08:58:05.579Z,16.20
2023-05-15T09:00:36.116Z,16.20
2023-05-15T09:03:04.659Z,16.20
2023-05-15T09:05:33.488Z,16.30
2023-05-15T09:08:07.179Z,16.30
2023-05-15T09:10:36.193Z,16.30
2023-05-15T09:13:04.478Z,16.30
2023-05-15T09:15:33.996Z,16.30
2023-05-15T09:18:03.026Z,16.30
2023-05-15T09:20:33.200Z,16.30
2023-05-15T09:23:02.744Z,16.30
2023-05-15T09:25:35.704Z,16.40
2023-05-15T09:28:03.983Z,16.40
2023-05-15T09:30:32.138Z,16.40
2023-05-15T09:33:03.746Z,16.50
2023-05-15T09:35:33.264Z,16.50
2023-05-15T09:38:02.206Z,16.50
2023-05-15T09:40:31.577Z,16.50
2023-05-15T09:43:00.463Z,16.50
2023-05-15T09:45:30.125Z,16.60
2023-05-15T09:48:05.636Z,16.60
2023-05-15T09:50:35.852Z,16.60
2023-05-15T09:53:04.526Z,16.60
2023-05-15T09:55:33.928Z,16.70
2023-05-15T09:58:11.039Z,16.70
2023-05-15T10:00:47.927Z,16.70
2023-05-15T10:03:20.005Z,16.70
2023-05-15T10:05:48.333Z,16.70
2023-05-15T10:08:17.168Z,16.70
2023-05-15T10:10:47.035Z,16.80
2023-05-15T10:13:15.635Z,16.80
2023-05-15T10:15:44.017Z,16.90
2023-05-15T10:18:13.523Z,16.80
2023-05-15T10:20:43.022Z,16.80
2023-05-15T10:23:13.240Z,16.80
2023-05-15T10:25:46.825Z,16.80
2023-05-15T10:28:15.609Z,16.80
2023-05-15T10:30:44.275Z,16.80
2023-05-15T10:33:14.119Z,16.90
2023-05-15T10:35:44.247Z,16.90
2023-05-15T10:38:13.644Z,16.90
2023-05-15T10:40:42.691Z,16.90
2023-05-15T10:43:11.511Z,16.90
2023-05-15T10:45:40.659Z,16.90
2023-05-15T10:48:12.327Z,16.90
2023-05-15T10:50:40.609Z,17.00
2023-05-15T10:53:11.970Z,17.10
2023-05-15T10:55:40.142Z,17.10
2023-05-15T10:58:10.673Z,17.10
2023-05-15T11:00:43.990Z,17.10
2023-05-15T11:03:15.351Z,17.20
2023-05-15T11:06:09.184Z,17.30
2023-05-15T11:08:39.740Z,17.30
2023-05-15T11:11:07.884Z,17.40
2023-05-15T11:14:15.432Z,17.30
2023-05-15T11:17:06.427Z,17.30
2023-05-15T11:19:57.849Z,17.40
2023-05-15T11:22:31.287Z,17.50
2023-05-15T11:25:02.329Z,17.40
2023-05-15T11:27:32.182Z,17.40
2023-05-15T11:30:14.914Z,17.60
2023-05-15T11:32:51.424Z,17.60
2023-05-15T11:35:22.428Z,17.60
2023-05-15T11:37:54.009Z,17.50
2023-05-15T11:40:25.630Z,17.40
2023-05-15T11:43:05.433Z,17.40
2023-05-15T11:45:35.980Z,17.30
2023-05-15T11:48:05.943Z,17.20
2023-05-15T11:50:35.412Z,17.20
2023-05-15T11:53:05.488Z,17.20
2023-05-15T11:55:37.070Z,17.10
2023-05-15T11:58:06.521Z,17.10
2023-05-15T12:00:35.139Z,17.10
2023-05-15T12:03:04.680Z,17.10
2023-05-15T12:05:32.977Z,17.10
2023-05-15T12:08:03.018Z,17.10
2023-05-15T12:10:32.192Z,17.10
2023-05-15T12:13:01.716Z,17.10
2023-05-15T12:15:29.834Z,17.10
2023-05-15T12:17:58.279Z,17.10
2023-05-15T12:20:27.392Z,17.20
2023-05-15T12:22:55.795Z,17.30
2023-05-15T12:25:24.185Z,17.40
2023-05-15T12:27:52.650Z,17.40
2023-05-15T12:30:22.396Z,17.30
2023-05-15T12:32:51.202Z,17.30
2023-05-15T12:35:19.803Z,17.20
2023-05-15T12:37:48.292Z,17.20
2023-05-15T12:40:20.960Z,17.20
2023-05-15T12:42:54.306Z,17.20
2023-05-15T12:45:24.224Z,17.10
2023-05-15T12:47:52.407Z,17.10
2023-05-15T12:50:22.056Z,17.10
2023-05-15T12:52:54.078Z,17.10
2023-05-15T12:55:25.565Z,17.00
2023-05-15T12:57:54.276Z,17.00
2023-05-15T13:00:24.355Z,17.00
2023-05-15T13:02:55.481Z,17.00
2023-05-15T13:05:24.737Z,17.00
2023-05-15T13:07:53.627Z,17.00
2023-05-15T13:10:23.821Z,17.00
2023-05-15T13:12:53.576Z,16.90
2023-05-15T13:15:29.030Z,16.90
2023-05-15T13:18:00.711Z,16.90
2023-05-15T13:20:29.470Z,16.80
2023-05-15T13:22:57.691Z,16.80
2023-05-15T13:25:25.909Z,16.70
2023-05-15T13:27:54.027Z,16.70
2023-05-15T13:30:22.204Z,16.60
2023-05-15T13:32:54.711Z,16.40
2023-05-15T13:35:24.037Z,16.50
2023-05-15T13:37:52.233Z,16.40
2023-05-15T13:40:21.258Z,16.40
2023-05-15T13:42:50.166Z,16.50
2023-05-15T13:45:18.474Z,16.50
2023-05-15T13:47:46.909Z,16.50
2023-05-15T13:50:16.908Z,16.40
2023-05-15T13:52:46.565Z,16.40
2023-05-15T13:55:14.796Z,16.30
2023-05-15T13:57:43.882Z,16.30
2023-05-15T14:00:14.001Z,16.30
2023-05-15T14:02:43.326Z,16.30
2023-05-15T14:05:13.268Z,16.20
2023-05-15T14:07:43.394Z,16.20
2023-05-15T14:10:12.233Z,16.10
2023-05-15T14:12:42.466Z,16.10
2023-05-15T14:15:12.229Z,16.10
2023-05-15T14:17:41.484Z,16.00
2023-05-15T14:20:11.488Z,16.00
2023-05-15T14:22:41.263Z,16.00
2023-05-15T14:25:12.045Z,16.00
2023-05-15T14:27:40.784Z,15.90
2023-05-15T14:30:10.023Z,15.90
2023-05-15T14:32:38.237Z,15.90
2023-05-15T14:35:06.692Z,16.00
2023-05-15T14:37:34.777Z,16.00
2023-05-15T14:40:04.843Z,16.00
2023-05-15T14:42:34.504Z,16.00
2023-05-15T14:45:02.595Z,15.80
2023-05-15T14:47:32.191Z,15.80
2023-05-15T14:50:00.446Z,15.80
2023-05-15T14:52:28.614Z,15.90
2023-05-15T14:55:08.401Z,15.90
2023-05-15T14:57:38.582Z,16.00
2023-05-15T15:00:08.375Z,15.90
2023-05-15T15:02:36.664Z,15.90
2023-05-15T15:05:05.699Z,15.90
2023-05-15T15:08:01.538Z,15.90
2023-05-15T15:10:29.740Z,16.00
2023-05-15T15:12:59.491Z,15.90
2023-05-15T15:15:27.743Z,15.90
2023-05-15T15:17:59.938Z,15.90
2023-05-15T15:20:29.182Z,15.90
2023-05-15T15:22:57.437Z,16.00
2023-05-15T15:25:26.036Z,16.00
2023-05-15T15:27:54.244Z,16.00
2023-05-15T15:30:23.887Z,15.90
2023-05-15T15:32:52.223Z,16.00
2023-05-15T15:35:20.412Z,16.10
2023-05-15T15:37:48.694Z,16.10
2023-05-15T15:40:16.836Z,16.10
2023-05-15T15:42:44.973Z,16.10
2023-05-15T15:45:13.151Z,16.20
2023-05-15T15:47:42.656Z,16.20
2023-05-15T15:50:11.278Z,16.20
2023-05-15T15:52:39.441Z,16.30
2023-05-15T15:55:08.969Z,16.20
2023-05-15T15:57:38.028Z,16.30
2023-05-15T16:00:08.287Z,16.30
2023-05-15T16:02:36.890Z,16.30
2023-05-15T16:05:07.776Z,16.30
2023-05-15T16:07:36.316Z,16.30
2023-05-15T16:10:27.438Z,16.30
2023-05-15T16:12:52.835Z,16.30
2023-05-15T16:15:24.341Z,16.40
2023-05-15T16:17:54.357Z,16.30
2023-05-15T16:20:24.818Z,16.30
2023-05-15T16:22:53.214Z,16.40
2023-05-15T16:25:21.724Z,16.40
2023-05-15T16:27:49.932Z,16.40
2023-05-15T16:30:18.155Z,16.40
2023-05-15T16:32:46.905Z,16.40
2023-05-15T16:35:15.177Z,16.40
2023-05-15T16:37:44.852Z,16.40
2023-05-15T16:40:13.681Z,16.30
2023-05-15T16:42:42.527Z,16.30
2023-05-15T16:45:10.976Z,16.30
2023-05-15T16:47:41.142Z,16.30
2023-05-15T16:50:10.188Z,16.20
2023-05-15T16:52:39.045Z,16.30
2023-05-15T16:55:09.421Z,16.20
2023-05-15T16:57:37.560Z,16.20
2023-05-15T17:00:08.469Z,16.20
2023-05-15T17:02:36.747Z,16.20
2023-05-15T17:05:05.351Z,16.20
2023-05-15T17:07:34.189Z,16.20
2023-05-15T17:10:02.415Z,16.20
2023-05-15T17:12:31.884Z,16.20
2023-05-15T17:15:00.147Z,16.10
2023-05-15T17:17:28.813Z,16.20
2023-05-15T17:19:57.311Z,16.20
2023-05-15T17:22:25.681Z,16.20
2023-05-15T17:24:53.822Z,16.20
2023-05-15T17:27:21.959Z,16.20
2023-05-15T17:29:51.506Z,16.10
2023-05-15T17:32:20.434Z,16.20
2023-05-15T17:34:50.103Z,16.20
2023-05-15T17:37:18.276Z,16.10
2023-05-15T17:39:46.377Z,16.10
2023-05-15T17:42:14.555Z,16.10
2023-05-15T17:44:42.688Z,16.10
2023-05-15T17:47:12.177Z,16.00
2023-05-15T17:49:40.617Z,16.10
2023-05-15T17:52:09.090Z,16.10
2023-05-15T17:54:37.398Z,16.10
2023-05-15T17:57:06.213Z,16.10
2023-05-15T17:59:34.479Z,16.00
2023-05-15T18:02:02.810Z,16.10
2023-05-15T18:04:32.402Z,16.10
2023-05-15T18:07:00.617Z,16.00
2023-05-15T18:09:29.718Z,16.10
2023-05-15T18:11:57.993Z,16.00
2023-05-15T18:14:28.991Z,16.10
2023-05-15T18:16:57.507Z,16.00
2023-05-15T18:19:25.918Z,16.10
2023-05-15T18:21:55.439Z,16.00
2023-05-15T18:24:23.532Z,16.00
2023-05-15T18:26:51.671Z,16.00
2023-05-15T18:29:19.748Z,16.00
2023-05-15T18:31:47.867Z,16.00
2023-05-15T18:34:15.975Z,15.90
2023-05-15T18:36:44.102Z,15.90
2023-05-15T18:39:15.502Z,15.90
2023-05-15T18:41:43.742Z,15.90
2023-05-15T18:44:11.901Z,15.90
2023-05-15T18:46:40.108Z,15.90
2023-05-15T18:49:08.242Z,15.90
2023-05-15T18:51:36.462Z,15.80
2023-05-15T18:54:04.695Z,15.80
2023-05-15T18:56:34.174Z,15.90
2023-05-15T18:59:02.247Z,15.80
2023-05-15T19:01:30.429Z,15.90
2023-05-15T19:03:58.785Z,15.80
2023-05-15T19:06:26.948Z,15.80
2023-05-15T19:08:55.149Z,15.80
2023-05-15T19:11:23.273Z,15.70
2023-05-15T19:13:52.974Z,15.80
2023-05-15T19:16:21.230Z,15.80
2023-05-15T19:18:49.394Z,15.70
2023-05-15T19:21:20.964Z,15.80
2023-05-15T19:23:49.151Z,15.70
2023-05-15T19:26:17.340Z,15.70
2023-05-15T19:28:45.410Z,15.60
2023-05-15T19:31:27.820Z,15.60
2023-05-15T19:33:59.810Z,15.60
2023-05-15T19:36:28.116Z,15.60
2023-05-15T19:38:56.274Z,15.60
2023-05-15T19:41:24.510Z,15.60
2023-05-15T19:43:52.583Z,15.50
2023-05-15T19:46:22.272Z,15.50
2023-05-15T19:48:50.392Z,15.50
2023-05-15T19:51:18.622Z,15.50
2023-05-15T19:53:46.741Z,15.50
2023-05-15T19:56:14.899Z,15.50
2023-05-15T19:58:43.024Z,15.50
2023-05-15T20:01:11.163Z,15.40
2023-05-15T20:03:40.896Z,15.40
2023-05-15T20:06:09.918Z,15.50
2023-05-15T20:08:38.040Z,15.40
2023-05-15T20:11:06.354Z,15.50
2023-05-15T20:13:35.242Z,15.60
2023-05-15T20:16:07.003Z,15.60
2023-05-15T20:18:35.716Z,15.60
2023-05-15T20:21:05.326Z,15.60
2023-05-15T20:23:33.687Z,15.60
2023-05-15T20:26:01.810Z,15.60
2023-05-15T20:28:29.966Z,15.60
2023-05-15T20:30:58.566Z,15.50
2023-05-15T20:33:26.844Z,15.50
2023-05-15T20:35:55.192Z,15.60
2023-05-15T20:38:25.293Z,15.50
2023-05-15T20:40:53.617Z,15.60
2023-05-15T20:43:21.756Z,15.60
2023-05-15T20:45:52.820Z,15.60
2023-05-15T20:48:21.040Z,15.60
2023-05-15T20:50:49.140Z,15.60
2023-05-15T20:53:17.242Z,15.70
2023-05-15T20:55:46.817Z,15.70
2023-05-15T20:58:15.118Z,15.70
2023-05-15T21:00:43.270Z,15.70
2023-05-15T21:03:11.768Z,15.70
2023-05-15T21:05:40.060Z,15.70
2023-05-15T21:08:08.160Z,15.60
2023-05-15T21:10:36.280Z,15.70
2023-05-15T21:13:05.818Z,15.70
2023-05-15T21:15:33.891Z,15.60
2023-05-15T21:18:02.108Z,15.60
2023-05-15T21:20:31.943Z,15.60
2023-05-15T21:23:01.008Z,15.70
2023-05-15T21:25:29.069Z,15.60
2023-05-15T21:27:57.207Z,15.60
2023-05-15T21:30:26.873Z,15.60
2023-05-15T21:32:55.201Z,15.60
2023-05-15T21:35:25.053Z,15.50
2023-05-15T21:37:53.248Z,15.50
2023-05-15T21:40:21.305Z,15.50
2023-05-15T21:42:49.454Z,15.50
2023-05-15T21:45:17.661Z,15.50
2023-05-15T21:47:47.148Z,15.50
2023-05-15T21:50:15.419Z,15.60
2023-05-15T21:52:43.564Z,15.50
2023-05-15T21:55:12.167Z,15.50
2023-05-15T21:57:40.432Z,15.50
2023-05-15T22:00:10.471Z,15.50
2023-05-15T22:02:39.389Z,15.40
2023-05-15T22:05:09.403Z,15.40
2023-05-15T22:07:37.631Z,15.30
2023-05-15T22:10:07.531Z,15.30
2023-05-15T22:12:35.695Z,15.30
2023-05-15T22:15:03.803Z,15.30
2023-05-15T22:17:32.028Z,15.30
2023-05-15T22:20:07.524Z,15.30
2023-05-15T22:22:38.121Z,15.30
2023-05-15T22:25:07.617Z,15.30
2023-05-15T22:27:36.165Z,15.30
2023-05-15T22:30:04.566Z,15.20
2023-05-15T22:32:32.762Z,15.20
2023-05-15T22:35:01.219Z,15.30
2023-05-15T22:37:29.459Z,15.30
2023-05-15T22:39:58.937Z,15.30
2023-05-15T22:42:27.787Z,15.40
2023-05-15T22:44:57.496Z,15.40
2023-05-15T22:47:26.015Z,15.30
2023-05-15T22:49:54.263Z,15.40
2023-05-15T22:52:22.619Z,15.40
2023-05-15T22:54:50.720Z,15.40
2023-05-15T22:57:20.166Z,15.30
2023-05-15T22:59:48.274Z,15.40
2023-05-15T23:02:16.565Z,15.30
2023-05-15T23:04:44.726Z,15.30
2023-05-15T23:07:12.881Z,15.20
2023-05-15T23:09:41.170Z,15.30
2023-05-15T23:12:09.472Z,15.30
2023-05-15T23:14:38.893Z,15.20
2023-05-15T23:17:07.054Z,15.20
2023-05-15T23:19:35.143Z,15.20
2023-05-15T23:22:03.557Z,15.30
2023-05-15T23:24:31.699Z,15.20
2023-05-15T23:27:00.280Z,15.20
2023-05-15T23:29:28.439Z,15.20
2023-05-15T23:31:58.724Z,15.20
2023-05-15T23:34:26.863Z,15.20
2023-05-15T23:36:55.028Z,15.10
2023-05-15T23:39:23.111Z,15.20
2023-05-15T23:41:51.419Z,15.20
2023-05-15T23:44:19.541Z,15.20
2023-05-15T23:46:47.678Z,15.20
2023-05-15T23:49:17.260Z,15.20
2023-05-15T23:51:45.380Z,15.20
2023-05-15T23:54:13.489Z,15.10
2023-05-15T23:56:41.663Z,15.30
2023-05-15T23:59:09.770Z,15.30
